Time;durP1;ratioP1;P1;durP2;ratioP2;P2;SDS_P1;SDS_P2;PMS_P1;PMS_P2;Temp;Humidity;BMP_temperature;BMP_pressure;BME280_temperature;BME280_humidity;BME280_pressure;Samples;Min_cycle;Max_cycle;Signal;HPM_P1;HPM_P2
2023/10/23 00:01:36;;;;;;;11.27;10.13;;;;;;;;;;5052378;28;20051;-45
2023/10/23 00:04:02;;;;;;;12.07;10.77;;;;;;;;;;5066346;28;20514;-46
2023/10/23 00:06:28;;;;;;;17.17;10.73;;;;;;;;;;5065756;28;20064;-47
2023/10/23 00:08:54;;;;;;;12.48;10.75;;;;;;;;;;5052913;28;20193;-46
2023/10/23 00:11:27;;;;;;;11.02;9.60;;;;;;;;;;5044915;28;20052;-45
2023/10/23 00:13:53;;;;;;;14.27;10.18;;;;;;;;;;5065000;28;20048;-46
2023/10/23 00:16:19;;;;;;;12.48;9.70;;;;;;;;;;5062374;28;20039;-45
2023/10/23 00:18:46;;;;;;;11.30;10.10;;;;;;;;;;5066145;28;20037;-46
2023/10/23 00:21:13;;;;;;;11.60;10.45;;;;;;;;;;5064386;28;20045;-46
2023/10/23 00:23:39;;;;;;;12.82;10.07;;;;;;;;;;5064845;28;20049;-46
2023/10/23 00:26:08;;;;;;;11.00;9.90;;;;;;;;;;5069369;28;20102;-45
2023/10/23 00:28:34;;;;;;;14.35;9.82;;;;;;;;;;5068521;28;20032;-49
2023/10/23 00:31:00;;;;;;;10.15;9.13;;;7.80;99.90;;;;;;5066261;28;20079;-46
2023/10/23 00:33:27;;;;;;;13.38;10.30;;;7.70;99.90;;;;;;5067726;28;20072;-45
2023/10/23 00:35:53;;;;;;;11.65;9.95;;;7.70;99.90;;;;;;5067415;28;20553;-45
2023/10/23 00:38:19;;;;;;;12.30;9.90;;;7.70;99.90;;;;;;5064331;28;20108;-46
2023/10/23 00:40:45;;;;;;;12.95;10.35;;;7.70;99.90;;;;;;5062558;28;20120;-45
2023/10/23 00:43:28;;;;;;;11.75;9.45;;;7.70;99.90;;;;;;5065291;28;20040;-45
2023/10/23 00:45:59;;;;;;;11.23;9.98;;;7.60;99.90;;;;;;5066316;28;20099;-45
2023/10/23 00:48:26;;;;;;;10.80;9.60;;;7.60;99.90;;;;;;5064753;28;20048;-47
2023/10/23 00:50:56;;;;;;;12.07;10.93;;;7.50;99.90;;;;;;5059123;28;20037;-45
2023/10/23 00:53:24;;;;;;;12.05;10.77;;;7.50;99.90;;;;;;5062366;28;20468;-45
2023/10/23 00:55:52;;;;;;;12.60;10.10;;;7.50;99.90;;;;;;5063314;28;20037;-45
2023/10/23 00:58:18;;;;;;;10.90;9.80;;;7.50;99.90;;;;;;5060865;28;20479;-45
2023/10/23 01:00:44;;;;;;;11.52;9.43;;;7.50;99.90;;;;;;5058527;28;20116;-46
2023/10/23 01:03:10;;;;;;;11.85;10.25;;;7.50;99.90;;;;;;5069175;28;20482;-48
2023/10/23 01:05:38;;;;;;;12.70;10.70;;;7.50;99.90;;;;;;5060743;28;20032;-45
2023/10/23 01:08:05;;;;;;;;;;;7.40;99.90;;;;;;5067254;28;20048;-48
2023/10/23 01:10:31;;;;;;;11.77;9.68;;;7.40;99.90;;;;;;5064248;28;20059;-45
2023/10/23 01:12:57;;;;;;;12.43;9.68;;;7.40;99.90;;;;;;5064168;28;20435;-45
2023/10/23 01:15:23;;;;;;;11.13;9.90;;;7.40;99.90;;;;;;5068824;28;20083;-45
2023/10/23 01:17:52;;;;;;;13.45;9.88;;;7.40;99.90;;;;;;5062734;28;20041;-45
2023/10/23 01:20:18;;;;;;;11.80;9.93;;;7.40;99.90;;;;;;5065748;28;20040;-45
2023/10/23 01:22:44;;;;;;;13.48;10.73;;;7.40;99.90;;;;;;5060484;28;20458;-44
2023/10/23 01:25:13;;;;;;;16.33;11.07;;;7.30;99.90;;;;;;5057552;28;20105;-45
2023/10/23 01:27:39;;;;;;;12.15;10.20;;;7.30;99.90;;;;;;5062631;28;20453;-47
2023/10/23 01:30:06;;;;;;;14.63;10.43;;;7.30;99.90;;;;;;5058452;28;20052;-48
2023/10/23 01:32:31;;;;;;;13.52;10.38;;;7.20;99.90;;;;;;5060155;28;20045;-45
2023/10/23 01:34:57;;;;;;;11.95;10.73;;;7.20;99.90;;;;;;5058920;28;20502;-45
2023/10/23 01:37:23;;;;;;;11.82;10.35;;;7.20;99.90;;;;;;5058309;28;20032;-45
2023/10/23 01:39:48;;;;;;;12.27;10.10;;;7.10;99.90;;;;;;5053839;28;20041;-45
2023/10/23 01:42:14;;;;;;;11.70;10.50;;;7.10;99.90;;;;;;5057861;28;20033;-46
2023/10/23 01:44:40;;;;;;;13.23;10.45;;;7.00;99.90;;;;;;5061057;28;20767;-45
2023/10/23 01:47:05;;;;;;;11.55;9.95;;;7.00;99.90;;;;;;5056758;28;20049;-45
2023/10/23 01:49:31;;;;;;;10.55;9.55;;;7.00;99.90;;;;;;5056311;28;21936;-44
2023/10/23 01:51:56;;;;;;;12.07;10.05;;;7.00;99.90;;;;;;5055467;28;20044;-46
2023/10/23 01:54:22;;;;;;;16.17;9.65;;;7.00;99.90;;;;;;5058828;28;20538;-44
2023/10/23 01:56:48;;;;;;;10.32;9.32;;;6.90;99.90;;;;;;5056769;28;20040;-44
2023/10/23 01:59:13;;;;;;;10.05;8.73;;;6.80;99.90;;;;;;5060920;28;20403;-46
2023/10/23 02:01:39;;;;;;;11.07;8.60;;;6.80;99.90;;;;;;5056869;28;20140;-44
2023/10/23 02:04:06;;;;;;;16.00;10.90;;;6.80;99.90;;;;;;5059921;28;20052;-45
2023/10/23 02:06:32;;;;;;;11.77;9.57;;;6.70;99.90;;;;;;5063089;28;20117;-44
2023/10/23 02:08:59;;;;;;;10.50;9.43;;;6.70;99.90;;;;;;5059126;28;20068;-47
2023/10/23 02:11:24;;;;;;;12.23;10.55;;;6.70;99.90;;;;;;5061938;28;20124;-44
2023/10/23 02:13:50;;;;;;;15.68;10.85;;;6.60;99.90;;;;;;5061808;28;20566;-47
2023/10/23 02:16:16;;;;;;;15.02;11.45;;;6.70;99.90;;;;;;5061146;28;20490;-48
2023/10/23 02:18:41;;;;;;;11.48;10.15;;;6.80;99.90;;;;;;5059184;28;20039;-47
2023/10/23 02:21:07;;;;;;;12.45;11.15;;;6.80;99.90;;;;;;5063350;28;20414;-47
2023/10/23 02:23:33;;;;;;;17.63;13.00;;;6.80;99.90;;;;;;5061405;28;20056;-47
2023/10/23 02:25:59;;;;;;;21.15;12.65;;;6.90;99.90;;;;;;5060155;28;20521;-45
2023/10/23 02:28:25;;;;;;;15.18;12.63;;;6.90;99.90;;;;;;5063299;28;20045;-47
2023/10/23 02:30:51;;;;;;;15.10;11.68;;;7.00;99.90;;;;;;5068215;28;20045;-49
2023/10/23 02:33:17;;;;;;;12.32;11.02;;;7.00;99.90;;;;;;5062379;28;20447;-44
2023/10/23 02:35:43;;;;;;;16.45;13.32;;;6.90;99.90;;;;;;5061237;28;20074;-46
2023/10/23 02:38:09;;;;;;;14.82;12.52;;;6.90;99.90;;;;;;5059389;28;20138;-47
2023/10/23 02:40:35;;;;;;;13.70;12.30;;;7.00;99.90;;;;;;5061557;28;20088;-46
2023/10/23 02:43:00;;;;;;;15.88;13.00;;;7.00;99.90;;;;;;5060434;28;20510;-45
2023/10/23 02:45:26;;;;;;;15.65;13.50;;;7.00;99.90;;;;;;5057376;28;20059;-47
2023/10/23 02:47:53;;;;;;;18.17;14.00;;;6.90;99.90;;;;;;5059913;28;20052;-45
2023/10/23 02:50:19;;;;;;;20.08;13.55;;;6.90;99.90;;;;;;5062292;28;20060;-46
2023/10/23 02:52:45;;;;;;;17.02;13.82;;;6.90;99.90;;;;;;5062933;28;20086;-45
2023/10/23 02:55:11;;;;;;;17.08;13.55;;;6.90;99.90;;;;;;5062459;28;20036;-44
2023/10/23 02:57:37;;;;;;;14.77;12.13;;;6.90;99.90;;;;;;5057622;28;20040;-45
2023/10/23 03:00:05;;;;;;;14.45;12.00;;;6.80;99.90;;;;;;5060152;28;20040;-46
2023/10/23 03:02:31;;;;;;;18.88;14.27;;;6.80;99.90;;;;;;5060502;28;20533;-46
2023/10/23 03:04:56;;;;;;;15.55;13.85;;;6.80;99.90;;;;;;5059952;28;20045;-46
2023/10/23 03:07:23;;;;;;;21.73;15.20;;;6.80;99.90;;;;;;5063171;28;20720;-45
2023/10/23 03:09:49;;;;;;;20.00;15.40;;;6.80;99.90;;;;;;5063977;28;20045;-48
2023/10/23 03:12:14;;;;;;;16.58;14.25;;;6.80;99.90;;;;;;5058971;28;20055;-44
2023/10/23 03:14:40;;;;;;;22.95;15.43;;;6.80;99.90;;;;;;5060636;28;20037;-44
2023/10/23 03:17:06;;;;;;;18.83;15.18;;;6.80;99.90;;;;;;5057955;28;20322;-46
2023/10/23 03:19:31;;;;;;;22.45;17.25;;;6.80;99.90;;;;;;5054972;28;20636;-44
2023/10/23 03:21:57;;;;;;;19.05;15.23;;;6.90;99.90;;;;;;5039504;28;20114;-45
2023/10/23 03:24:23;;;;;;;17.70;15.27;;;6.80;99.90;;;;;;5059053;28;20124;-44
2023/10/23 03:26:48;;;;;;;21.50;17.48;;;6.80;99.90;;;;;;5063302;28;20427;-45
2023/10/23 03:29:14;;;;;;;22.55;16.75;;;6.80;99.90;;;;;;5063425;28;20086;-44
2023/10/23 03:31:39;;;;;;;21.55;16.92;;;6.90;99.90;;;;;;5061109;28;20506;-44
2023/10/23 03:34:05;;;;;;;22.75;17.75;;;6.90;99.90;;;;;;5063017;28;20475;-45
2023/10/23 03:36:31;;;;;;;27.77;19.23;;;7.00;99.90;;;;;;5062799;28;20040;-45
2023/10/23 03:38:56;;;;;;;21.48;16.98;;;7.00;99.90;;;;;;5067788;28;20120;-45
2023/10/23 03:41:22;;;;;;;21.98;17.25;;;7.00;99.90;;;;;;5056077;28;20516;-44
2023/10/23 03:43:47;;;;;;;22.92;18.23;;;7.00;99.90;;;;;;5054239;28;20060;-44
2023/10/23 03:46:13;;;;;;;23.77;18.55;;;7.10;99.90;;;;;;5055394;28;20075;-44
2023/10/23 03:48:39;;;;;;;27.27;20.52;;;7.20;99.90;;;;;;5060773;28;20483;-45
2023/10/23 03:51:05;;;;;;;28.08;19.77;;;7.30;99.90;;;;;;5059393;28;20040;-45
2023/10/23 03:53:30;;;;;;;28.92;21.65;;;7.40;99.90;;;;;;5063175;28;20037;-46
2023/10/23 03:55:56;;;;;;;35.33;24.08;;;7.50;99.90;;;;;;5057505;28;20112;-45
2023/10/23 03:58:21;;;;;;;35.95;23.52;;;7.60;99.90;;;;;;5063879;28;20609;-44
2023/10/23 04:00:51;;;;;;;30.30;22.27;;;7.70;99.90;;;;;;5059203;28;20047;-46
2023/10/23 04:03:17;;;;;;;31.77;22.95;;;7.70;99.90;;;;;;5066338;28;20097;-45
2023/10/23 04:05:43;;;;;;;25.23;20.35;;;7.80;99.90;;;;;;5062796;28;20036;-45
2023/10/23 04:08:08;;;;;;;22.55;19.75;;;7.70;99.90;;;;;;5062931;28;20044;-45
2023/10/23 04:10:34;;;;;;;32.92;21.40;;;7.80;99.90;;;;;;5065776;28;20128;-44
2023/10/23 04:13:00;;;;;;;28.65;20.27;;;7.80;99.90;;;;;;5069723;28;20037;-46
2023/10/23 04:15:25;;;;;;;27.88;20.40;;;7.80;99.90;;;;;;5062969;28;20123;-44
2023/10/23 04:17:51;;;;;;;27.00;19.42;;;7.80;99.90;;;;;;5062945;28;20055;-45
2023/10/23 04:20:16;;;;;;;24.30;18.13;;;7.70;99.90;;;;;;5054240;28;20095;-45
2023/10/23 04:22:43;;;;;;;28.98;19.58;;;7.70;99.90;;;;;;5055607;28;20048;-44
2023/10/23 04:25:09;;;;;;;27.55;20.48;;;7.70;99.90;;;;;;5060426;28;20502;-45
2023/10/23 04:27:35;;;;;;;24.83;19.48;;;7.70;99.90;;;;;;5064069;28;20049;-45
2023/10/23 04:30:01;;;;;;;22.75;18.25;;;7.70;99.90;;;;;;5054790;28;20040;-45
2023/10/23 04:32:27;;;;;;;23.42;17.25;;;7.70;99.90;;;;;;5061949;28;20514;-45
2023/10/23 04:34:53;;;;;;;25.20;18.48;;;7.70;99.90;;;;;;5059682;28;20079;-47
2023/10/23 04:37:19;;;;;;;26.35;19.05;;;7.70;99.90;;;;;;5059205;28;20036;-46
2023/10/23 04:39:44;;;;;;;25.48;19.88;;;7.60;99.90;;;;;;5054352;28;20051;-45
2023/10/23 04:42:10;;;;;;;23.25;18.50;;;7.60;99.90;;;;;;5052415;28;20601;-48
2023/10/23 04:44:35;;;;;;;25.15;19.40;;;7.60;99.90;;;;;;5055485;28;20052;-45
2023/10/23 04:47:01;;;;;;;24.80;19.08;;;7.60;99.90;;;;;;5056163;28;20052;-44
2023/10/23 04:49:28;;;;;;;25.90;19.65;;;7.70;99.90;;;;;;5056151;28;20051;-48
2023/10/23 04:51:53;;;;;;;22.70;18.65;;;7.70;99.90;;;;;;5058187;28;20154;-45
2023/10/23 04:54:19;;;;;;;22.83;18.60;;;7.80;99.90;;;;;;5057917;28;20036;-44
2023/10/23 04:56:45;;;;;;;21.45;17.00;;;7.70;99.90;;;;;;5053583;28;20467;-45
2023/10/23 04:59:11;;;;;;;23.10;17.90;;;7.70;99.90;;;;;;5055971;28;20037;-44
2023/10/23 05:01:37;;;;;;;23.27;17.85;;;7.70;99.90;;;;;;5058388;28;20628;-45
2023/10/23 05:04:02;;;;;;;27.45;19.58;;;7.70;99.90;;;;;;5053492;28;20104;-46
2023/10/23 05:06:28;;;;;;;24.83;18.27;;;7.80;99.90;;;;;;5057824;28;20525;-45
2023/10/23 05:08:54;;;;;;;25.92;18.92;;;7.80;99.90;;;;;;5059713;28;20048;-44
2023/10/23 05:11:20;;;;;;;21.83;18.58;;;7.80;99.90;;;;;;5058010;28;20033;-45
2023/10/23 05:13:46;;;;;;;28.33;19.67;;;7.90;99.90;;;;;;5056469;28;20054;-44
2023/10/23 05:16:12;;;;;;;24.42;19.20;;;7.90;99.90;;;;;;5059379;28;20116;-45
2023/10/23 05:18:39;;;;;;;22.92;18.23;;;7.90;99.90;;;;;;5058364;28;20115;-45
2023/10/23 05:21:09;;;;;;;27.77;20.30;;;7.90;99.90;;;;;;5058318;28;20071;-45
2023/10/23 05:23:39;;;;;;;19.02;16.33;;;7.90;99.90;;;;;;5058574;28;20048;-45
2023/10/23 05:26:04;;;;;;;20.48;16.92;;;8.00;99.90;;;;;;5058664;28;20055;-46
2023/10/23 05:28:31;;;;;;;18.35;15.95;;;7.90;99.90;;;;;;5057046;28;20619;-44
2023/10/23 05:30:57;;;;;;;18.67;14.93;;;7.90;99.90;;;;;;5057407;28;20048;-45
2023/10/23 05:33:23;;;;;;;18.75;15.55;;;7.90;99.90;;;;;;5056387;28;20114;-45
2023/10/23 05:35:49;;;;;;;19.70;16.02;;;7.80;99.90;;;;;;5060780;28;20053;-45
2023/10/23 05:38:14;;;;;;;19.38;15.60;;;7.70;99.90;;;;;;5058776;28;20037;-45
2023/10/23 05:40:40;;;;;;;19.00;14.55;;;7.70;99.90;;;;;;5061546;28;20139;-47
2023/10/23 05:43:05;;;;;;;17.67;15.05;;;7.70;99.90;;;;;;5062308;28;20182;-44
2023/10/23 05:45:31;;;;;;;16.63;14.85;;;7.60;99.90;;;;;;5041807;28;20056;-45
2023/10/23 05:47:57;;;;;;;19.65;15.25;;;7.60;99.90;;;;;;5057531;28;20084;-47
2023/10/23 05:50:22;;;;;;;15.98;14.32;;;7.60;99.90;;;;;;5060328;28;20041;-45
2023/10/23 05:52:48;;;;;;;16.23;14.10;;;7.50;99.90;;;;;;5060665;28;20533;-44
2023/10/23 05:55:13;;;;;;;18.73;15.00;;;7.50;99.90;;;;;;5059910;28;20453;-45
2023/10/23 05:57:39;;;;;;;15.68;13.30;;;7.50;99.90;;;;;;5059991;28;20043;-45
2023/10/23 06:00:08;;;;;;;15.98;14.27;;;7.40;99.90;;;;;;5063984;28;20043;-45
2023/10/23 06:02:34;;;;;;;15.77;13.43;;;;;;;;;;5060295;28;20067;-45
2023/10/23 06:05:00;;;;;;;17.92;15.00;;;7.70;99.90;;;;;;5060149;28;20116;-45
2023/10/23 06:07:26;;;;;;;16.70;13.82;;;7.30;99.90;;;;;;5058643;28;20086;-44
2023/10/23 06:09:51;;;;;;;16.23;14.52;;;7.30;99.90;;;;;;5040467;28;20506;-48
2023/10/23 06:12:17;;;;;;;17.60;14.07;;;7.30;99.90;;;;;;5061054;28;20052;-45
2023/10/23 06:14:43;;;;;;;16.80;15.00;;;7.30;99.90;;;;;;5058719;28;20075;-48
2023/10/23 06:17:09;;;;;;;18.90;15.60;;;7.30;99.90;;;;;;5059573;28;20087;-46
2023/10/23 06:19:36;;;;;;;21.30;15.50;;;7.20;99.90;;;;;;5058427;28;20402;-45
2023/10/23 06:22:02;;;;;;;19.73;16.07;;;7.30;99.90;;;;;;5060510;28;20053;-45
2023/10/23 06:24:28;;;;;;;15.90;14.25;;;7.40;99.90;;;;;;5058906;28;20295;-46
2023/10/23 06:26:54;;;;;;;20.67;16.60;;;7.40;99.90;;;;;;5059848;28;20102;-44
2023/10/23 06:29:19;;;;;;;20.55;16.65;;;7.50;99.90;;;;;;5062374;28;20436;-46
2023/10/23 06:31:45;;;;;;;20.33;17.23;;;7.50;99.90;;;;;;5062123;28;20039;-44
2023/10/23 06:34:10;;;;;;;22.13;16.90;;;7.60;99.90;;;;;;5060844;28;20080;-44
2023/10/23 06:36:40;;;;;;;21.60;16.73;;;7.70;99.90;;;;;;5063313;28;20149;-44
2023/10/23 06:39:06;;;;;;;20.90;16.55;;;7.70;99.90;;;;;;5059976;28;20078;-45
2023/10/23 06:41:32;;;;;;;21.77;16.30;;;7.70;99.90;;;;;;5065862;28;20044;-49
2023/10/23 06:43:57;;;;;;;18.80;16.27;;;7.80;99.90;;;;;;5059125;28;20425;-46
2023/10/23 06:46:23;;;;;;;18.02;16.02;;;7.80;99.90;;;;;;5060857;28;20044;-45
2023/10/23 06:48:49;;;;;;;21.73;17.08;;;7.80;99.90;;;;;;5055697;28;20044;-46
2023/10/23 06:51:14;;;;;;;22.15;17.17;;;7.90;99.90;;;;;;5062729;28;20056;-46
2023/10/23 06:53:40;;;;;;;21.88;16.80;;;7.90;99.90;;;;;;5057189;28;20360;-45
2023/10/23 06:56:08;;;;;;;19.67;16.17;;;7.90;99.90;;;;;;5061596;28;20094;-48
2023/10/23 06:58:33;;;;;;;23.65;18.48;;;7.90;99.90;;;;;;5059278;28;20052;-47
2023/10/23 07:01:07;;;;;;;25.45;19.40;;;7.90;99.90;;;;;;5061069;28;20036;-46
2023/10/23 07:03:33;;;;;;;25.30;19.10;;;8.00;99.90;;;;;;5060545;28;20051;-45
2023/10/23 07:06:03;;;;;;;25.42;19.08;;;8.10;99.90;;;;;;5063149;28;20052;-46
2023/10/23 07:08:29;;;;;;;25.77;19.92;;;8.10;99.90;;;;;;5061225;28;20490;-45
2023/10/23 07:10:55;;;;;;;29.23;21.17;;;;;;;;;;5059590;28;20059;-45
2023/10/23 07:13:20;;;;;;;33.78;23.05;;;8.30;99.90;;;;;;5058772;28;20455;-44
2023/10/23 07:15:47;;;;;;;29.58;21.70;;;8.50;99.90;;;;;;5060698;28;20052;-45
2023/10/23 07:18:12;;;;;;;29.92;22.40;;;8.60;99.90;;;;;;5059892;28;20068;-47
2023/10/23 07:20:38;;;;;;;34.03;22.90;;;8.70;99.90;;;;;;5058975;28;20055;-46
2023/10/23 07:23:03;;;;;;;32.05;22.98;;;8.70;99.90;;;;;;5061095;28;20045;-46
2023/10/23 07:25:29;;;;;;;29.25;22.02;;;8.80;99.90;;;;;;5060039;28;20048;-46
2023/10/23 07:27:54;;;;;;;38.35;25.20;;;8.90;99.90;;;;;;5060235;28;20083;-48
2023/10/23 07:30:22;;;;;;;41.30;24.73;;;9.00;99.90;;;;;;5062831;28;20036;-47
2023/10/23 07:32:48;;;;;;;31.48;22.70;;;9.10;99.90;;;;;;5061521;28;20045;-45
2023/10/23 07:35:14;;;;;;;27.95;21.30;;;9.20;99.90;;;;;;5057497;28;20091;-45
2023/10/23 07:37:39;;;;;;;33.00;23.35;;;9.20;99.90;;;;;;5057175;28;20043;-44
2023/10/23 07:40:06;;;;;;;29.67;21.60;;;9.30;99.90;;;;;;5054543;28;20087;-46
2023/10/23 07:42:32;;;;;;;31.95;22.27;;;9.30;99.90;;;;;;5056384;28;20055;-45
2023/10/23 07:44:59;;;;;;;30.13;21.83;;;9.50;99.90;;;;;;5058703;28;20153;-48
2023/10/23 07:47:25;;;;;;;25.98;20.58;;;9.50;99.90;;;;;;5060434;28;20449;-45
2023/10/23 07:49:51;;;;;;;32.42;23.73;;;9.70;99.90;;;;;;5059773;28;20044;-44
2023/10/23 07:52:17;;;;;;;26.63;20.15;;;9.70;99.90;;;;;;5055954;28;20049;-46
2023/10/23 07:54:42;;;;;;;27.02;20.33;;;9.80;99.90;;;;;;5060423;28;20024;-45
2023/10/23 07:57:08;;;;;;;24.02;20.13;;;9.90;99.90;;;;;;5061635;28;20127;-46
2023/10/23 07:59:33;;;;;;;31.88;21.00;;;10.00;99.90;;;;;;5063739;28;20349;-44
2023/10/23 08:01:59;;;;;;;23.33;19.30;;;10.00;99.90;;;;;;5061237;28;20052;-48
2023/10/23 08:04:25;;;;;;;20.48;17.80;;;10.10;99.90;;;;;;5063318;28;20106;-44
2023/10/23 08:06:50;;;;;;;19.85;17.75;;;10.10;99.90;;;;;;5064428;28;20039;-47
2023/10/23 08:09:16;;;;;;;20.52;17.30;;;10.10;99.90;;;;;;5068540;28;20028;-47
2023/10/23 08:11:41;;;;;;;18.92;16.95;;;10.10;99.90;;;;;;5063883;28;20032;-47
2023/10/23 08:14:08;;;;;;;20.88;17.33;;;10.20;99.90;;;;;;5062300;28;20155;-46
2023/10/23 08:16:34;;;;;;;20.60;17.20;;;10.20;99.90;;;;;;5045440;28;20444;-48
2023/10/23 08:18:59;;;;;;;19.80;17.38;;;10.10;99.90;;;;;;5057817;28;20127;-47
2023/10/23 08:21:28;;;;;;;21.05;16.70;;;10.20;99.90;;;;;;5066068;28;20048;-46
2023/10/23 08:23:55;;;;;;;18.75;16.85;;;10.20;99.90;;;;;;5060647;28;20401;-46
2023/10/23 08:26:21;;;;;;;18.65;16.75;;;10.20;99.90;;;;;;5063500;28;20056;-46
2023/10/23 08:28:47;;;;;;;19.33;17.23;;;10.30;99.90;;;;;;5064146;28;20040;-47
2023/10/23 08:31:13;;;;;;;19.40;17.27;;;10.40;99.90;;;;;;5068658;28;20390;-48
2023/10/23 08:33:38;;;;;;;18.97;16.53;;;10.40;99.90;;;;;;5056769;28;20063;-46
2023/10/23 08:36:04;;;;;;;18.75;16.75;;;10.50;99.90;;;;;;5064394;28;20054;-45
2023/10/23 08:38:30;;;;;;;18.58;16.67;;;10.60;99.90;;;;;;5063304;28;20041;-48
2023/10/23 08:40:56;;;;;;;18.20;16.30;;;;;;;;;;5067510;28;20041;-45
2023/10/23 08:43:23;;;;;;;18.05;16.17;;;10.60;99.90;;;;;;5066698;28;20095;-45
2023/10/23 08:45:50;;;;;;;17.38;15.57;;;10.60;99.90;;;;;;5062061;28;20552;-44
2023/10/23 08:48:15;;;;;;;17.20;15.50;;;10.60;99.90;;;;;;5064714;28;20210;-46
2023/10/23 08:50:43;;;;;;;17.73;15.82;;;10.70;99.90;;;;;;5052493;28;20418;-46
2023/10/23 08:53:11;;;;;;;17.67;15.88;;;10.60;99.90;;;;;;5056348;28;20402;-46
2023/10/23 08:55:37;;;;;;;18.85;16.95;;;10.60;99.90;;;;;;5057364;28;20608;-46
2023/10/23 08:58:05;;;;;;;18.25;16.17;;;10.50;99.90;;;;;;5059849;28;20044;-47
2023/10/23 09:00:30;;;;;;;18.77;16.77;;;10.50;99.90;;;;;;5061102;28;20541;-48
2023/10/23 09:02:58;;;;;;;17.88;16.00;;;10.50;99.90;;;;;;5064550;28;20068;-45
2023/10/23 09:05:24;;;;;;;18.02;16.13;;;10.60;99.90;;;;;;5054933;28;20052;-44
2023/10/23 09:07:50;;;;;;;18.38;16.48;;;10.70;99.90;;;;;;5065858;28;20097;-46
2023/10/23 09:10:16;;;;;;;18.92;16.92;;;10.70;99.90;;;;;;5062920;28;20076;-45
2023/10/23 09:12:42;;;;;;;20.55;17.98;;;10.80;99.90;;;;;;5045618;28;20068;-46
2023/10/23 09:15:17;;;;;;;22.20;17.77;;;10.80;99.90;;;;;;5060269;28;20044;-48
2023/10/23 09:17:43;;;;;;;23.13;19.15;;;11.00;99.90;;;;;;5064542;28;20041;-47
2023/10/23 09:20:29;;;;;;;21.05;18.65;;;11.10;99.90;;;;;;5059845;28;20112;-44
2023/10/23 09:22:55;;;;;;;23.80;19.83;;;11.00;99.90;;;;;;5059631;28;20530;-46
2023/10/23 09:25:23;;;;;;;23.00;20.52;;;11.10;99.90;;;;;;5058136;28;20052;-45
2023/10/23 09:27:50;;;;;;;23.23;20.63;;;11.20;99.90;;;;;;5062972;28;20136;-45
2023/10/23 09:30:21;;;;;;;23.65;20.27;;;11.20;99.90;;;;;;5064094;28;20037;-46
2023/10/23 09:32:54;;;;;;;24.27;21.35;;;11.30;99.90;;;;;;5059991;28;20437;-46
2023/10/23 09:35:28;;;;;;;25.25;21.17;;;11.40;99.90;;;;;;5044785;28;20049;-47
2023/10/23 09:37:55;;;;;;;25.92;21.85;;;11.40;99.90;;;;;;5057595;28;20143;-46
2023/10/23 09:40:20;;;;;;;28.40;21.77;;;11.40;99.90;;;;;;5057536;28;20080;-46
2023/10/23 09:42:46;;;;;;;22.45;20.05;;;11.50;99.90;;;;;;5054284;28;20467;-48
2023/10/23 09:45:12;;;;;;;28.45;22.67;;;11.50;99.90;;;;;;5058339;28;20120;-45
2023/10/23 09:47:39;;;;;;;21.90;19.40;;;11.60;99.90;;;;;;5058628;28;20037;-48
2023/10/23 09:50:05;;;;;;;23.73;19.65;;;11.80;99.90;;;;;;5064556;28;20044;-47
2023/10/23 09:52:32;;;;;;;21.80;19.58;;;11.70;99.90;;;;;;5068185;28;20044;-45
2023/10/23 09:55:05;;;;;;;21.20;18.85;;;11.90;99.90;;;;;;5062927;28;20041;-46
2023/10/23 09:57:39;;;;;;;23.75;19.20;;;11.90;99.90;;;;;;5058795;28;20041;-47
2023/10/23 10:00:13;;;;;;;21.90;19.60;;;12.00;99.90;;;;;;5062895;28;20119;-46
2023/10/23 10:02:49;;;;;;;20.48;18.48;;;12.10;99.90;;;;;;5061541;28;20435;-45
2023/10/23 10:05:24;;;;;;;19.40;17.45;;;12.30;99.90;;;;;;5058780;28;20487;-46
2023/10/23 10:08:10;;;;;;;19.63;17.70;;;12.40;99.90;;;;;;5059684;28;20072;-46
2023/10/23 10:10:36;;;;;;;20.83;18.63;;;12.50;99.90;;;;;;5066150;28;20076;-46
2023/10/23 10:13:05;;;;;;;20.08;18.08;;;12.40;99.90;;;;;;5062605;28;20045;-46
2023/10/23 10:15:34;;;;;;;20.88;18.77;;;12.20;99.90;;;;;;5060076;28;20119;-45
2023/10/23 10:18:00;;;;;;;21.65;19.65;;;12.30;99.90;;;;;;5063759;28;20040;-47
2023/10/23 10:20:26;;;;;;;21.08;18.90;;;12.30;99.90;;;;;;5063832;28;20055;-48
2023/10/23 10:23:08;;;;;;;20.70;18.63;;;12.40;99.90;;;;;;5059198;28;20040;-47
2023/10/23 10:25:35;;;;;;;19.35;17.55;;;12.40;99.90;;;;;;5047077;28;20122;-49
2023/10/23 10:28:04;;;;;;;19.42;17.48;;;12.40;99.90;;;;;;5060503;28;20432;-46
2023/10/23 10:30:51;;;;;;;18.67;16.98;;;12.40;99.90;;;;;;5056716;28;20049;-47
2023/10/23 10:33:31;;;;;;;18.75;16.85;;;12.40;99.90;;;;;;5060152;28;20399;-49
2023/10/23 10:36:03;;;;;;;18.35;16.55;;;12.40;99.90;;;;;;5061611;28;20044;-47
2023/10/23 10:38:30;;;;;;;19.67;17.70;;;12.50;99.90;;;;;;5065103;28;20483;-48
2023/10/23 10:41:16;;;;;;;18.27;16.30;;;12.40;99.90;;;;;;5062277;28;20120;-49
2023/10/23 10:43:43;;;;;;;18.38;16.58;;;12.40;99.90;;;;;;5064613;28;20064;-46
2023/10/23 10:46:23;;;;;;;18.83;15.90;;;12.50;99.90;;;;;;5059381;28;20049;-45
2023/10/23 10:48:53;;;;;;;16.45;14.75;;;12.40;99.90;;;;;;5061168;28;20283;-46
2023/10/23 10:51:21;;;;;;;16.90;15.20;;;12.30;99.90;;;;;;5069879;28;20040;-46
2023/10/23 10:53:55;;;;;;;17.60;15.80;;;12.50;99.90;;;;;;5061054;28;20123;-46
2023/10/23 10:56:21;;;;;;;17.17;15.43;;;12.50;99.90;;;;;;5067965;28;20124;-46
2023/10/23 10:58:46;;;;;;;17.27;15.68;;;12.50;99.90;;;;;;5061926;28;20124;-50
2023/10/23 11:01:12;;;;;;;18.65;16.75;;;12.40;99.90;;;;;;5058399;28;20475;-46
2023/10/23 11:03:38;;;;;;;16.92;15.30;;;12.50;99.90;;;;;;5058437;28;20040;-45
2023/10/23 11:06:07;;;;;;;18.60;16.70;;;12.60;99.90;;;;;;5062444;28;20410;-46
2023/10/23 11:08:34;;;;;;;19.38;17.35;;;12.70;99.90;;;;;;5059008;28;20048;-46
2023/10/23 11:11:06;;;;;;;19.05;17.15;;;12.50;99.90;;;;;;5060807;28;20067;-46
2023/10/23 11:13:34;;;;;;;17.92;16.13;;;12.60;99.90;;;;;;5064302;28;20051;-46
2023/10/23 11:16:00;;;;;;;19.27;17.17;;;12.70;99.90;;;;;;5063756;28;20036;-46
2023/10/23 11:18:29;;;;;;;18.35;16.45;;;12.70;99.90;;;;;;5062720;28;20036;-46
2023/10/23 11:20:59;;;;;;;17.63;15.75;;;12.70;99.90;;;;;;5061812;28;20368;-47
2023/10/23 11:23:29;;;;;;;20.15;18.08;;;12.80;99.90;;;;;;5064872;28;20048;-46
2023/10/23 11:25:54;;;;;;;19.67;17.58;;;12.80;99.90;;;;;;5041319;28;20076;-46
2023/10/23 11:28:24;;;;;;;19.05;17.05;;;13.00;99.90;;;;;;5055170;28;20080;-49
2023/10/23 11:30:54;;;;;;;19.38;17.20;;;12.80;99.90;;;;;;5060393;28;20036;-47
2023/10/23 11:33:20;;;;;;;17.88;15.98;;;12.90;99.90;;;;;;5058475;28;20053;-46
2023/10/23 11:35:46;;;;;;;20.35;18.25;;;13.00;99.90;;;;;;5058436;28;20037;-50
2023/10/23 11:38:19;;;;;;;18.70;16.75;;;12.90;99.90;;;;;;5063621;28;20517;-47
2023/10/23 11:40:45;;;;;;;20.02;18.05;;;13.00;99.90;;;;;;5055758;28;20438;-48
2023/10/23 11:43:13;;;;;;;18.58;16.67;;;12.90;99.90;;;;;;5044779;28;20345;-46
2023/10/23 11:45:40;;;;;;;19.25;17.27;;;12.90;99.90;;;;;;5064812;28;20136;-49
2023/10/23 11:48:12;;;;;;;20.65;17.33;;;12.90;99.90;;;;;;5061179;28;20070;-45
2023/10/23 11:50:39;;;;;;;19.27;17.30;;;13.10;99.90;;;;;;5057138;28;20040;-49
2023/10/23 11:53:05;;;;;;;17.98;16.10;;;13.10;99.90;;;;;;5063977;28;20041;-46
2023/10/23 11:55:31;;;;;;;18.13;16.23;;;13.30;99.90;;;;;;5060136;28;20120;-46
2023/10/23 11:57:57;;;;;;;20.10;17.95;;;13.40;99.90;;;;;;5064154;28;20086;-47
2023/10/23 12:00:23;;;;;;;20.48;18.33;;;13.30;99.90;;;;;;5061674;28;20036;-46
2023/10/23 12:02:50;;;;;;;20.48;18.30;;;13.40;99.90;;;;;;5064192;28;20112;-47
2023/10/23 12:05:18;;;;;;;20.73;18.50;;;13.40;99.90;;;;;;5066344;28;20054;-46
2023/10/23 12:07:46;;;;;;;18.83;16.92;;;13.30;99.90;;;;;;5058908;28;20048;-47
2023/10/23 12:10:12;;;;;;;20.10;17.38;;;13.20;99.90;;;;;;5058867;28;20403;-49
2023/10/23 12:12:40;;;;;;;21.30;18.85;;;13.00;99.90;;;;;;5057697;28;20059;-46
2023/10/23 12:15:10;;;;;;;20.33;17.17;;;13.00;99.90;;;;;;5060891;28;20116;-46
2023/10/23 12:17:37;;;;;;;21.17;19.08;;;13.00;99.90;;;;;;5058621;28;20294;-46
2023/10/23 12:20:10;;;;;;;21.17;19.02;;;13.00;99.90;;;;;;5055579;28;20107;-47
2023/10/23 12:22:44;;;;;;;21.88;19.67;;;13.00;99.90;;;;;;5063540;28;20491;-49
2023/10/23 12:25:13;;;;;;;22.60;20.33;;;13.00;99.90;;;;;;5059267;28;20045;-47
2023/10/23 12:27:40;;;;;;;22.35;20.10;;;13.20;99.90;;;;;;5065220;28;20044;-47
2023/10/23 12:30:08;;;;;;;22.27;19.98;;;13.30;99.90;;;;;;5065112;28;20037;-48
2023/10/23 12:32:35;;;;;;;23.55;21.13;;;13.20;99.90;;;;;;5057616;28;20041;-49
2023/10/23 12:35:03;;;;;;;24.15;21.30;;;13.20;99.90;;;;;;5061447;28;20662;-47
2023/10/23 12:37:29;;;;;;;28.02;24.10;;;13.20;99.90;;;;;;5049564;28;20166;-50